Time;durP1;ratioP1;P1;durP2;ratioP2;P2;SDS_P1;SDS_P2;PMS_P1;PMS_P2;Temp;Humidity;BMP_temperature;BMP_pressure;BME280_temperature;BME280_humidity;BME280_pressure;Samples;Min_cycle;Max_cycle;Signal;HPM_P1;HPM_P2
2021/10/16 00:02:39;;;;;;;5.87;4.28;;;;;;;6.01;78.69;100414.16;2129924;82;20965;-83
2021/10/16 00:05:41;;;;;;;9.23;5.53;;;;;;;5.97;78.70;100418.48;2120963;82;21069;-80
2021/10/16 00:08:43;;;;;;;10.38;5.47;;;;;;;5.93;78.86;100418.38;2132611;82;21032;-79
2021/10/16 00:11:45;;;;;;;10.35;4.37;;;;;;;5.92;78.96;100416.71;2136530;82;21034;-82
2021/10/16 00:14:46;;;;;;;10.32;5.22;;;;;;;5.91;78.85;100418.97;2137506;82;20945;-80
2021/10/16 00:17:47;;;;;;;8.75;5.08;;;;;;;5.90;78.97;100418.14;2129431;82;21566;-82
2021/10/16 00:20:49;;;;;;;8.15;5.25;;;;;;;5.91;78.96;100421.61;2129131;82;21644;-82
2021/10/16 00:23:51;;;;;;;11.78;5.50;;;;;;;5.94;78.94;100416.11;2131179;82;20992;-80
2021/10/16 00:26:52;;;;;;;9.55;5.50;;;;;;;6.00;78.95;100424.84;2132679;82;21000;-80
2021/10/16 00:29:53;;;;;;;9.20;6.03;;;;;;;5.97;78.77;100424.61;2140209;82;21475;-80
2021/10/16 00:32:55;;;;;;;12.20;5.80;;;;;;;5.91;78.66;100426.39;2127611;82;21059;-83
2021/10/16 00:35:58;;;;;;;7.55;5.08;;;;;;;5.94;78.89;100427.97;2133295;82;21074;-80
2021/10/16 00:38:59;;;;;;;9.78;5.60;;;;;;;5.95;78.74;100430.48;2134279;82;21025;-81
2021/10/16 00:42:00;;;;;;;9.75;5.67;;;;;;;5.95;78.79;100434.92;2130251;82;21063;-80
2021/10/16 00:45:03;;;;;;;11.30;5.47;;;;;;;5.95;78.68;100437.55;2083195;84;21478;-82
2021/10/16 00:48:04;;;;;;;11.35;5.40;;;;;;;5.94;78.59;100437.18;2063551;84;21057;-82
2021/10/16 00:51:06;;;;;;;13.22;5.92;;;;;;;5.87;78.37;100437.33;2069276;84;21081;-80
2021/10/16 00:54:10;;;;;;;9.48;5.95;;;;;;;5.79;78.42;100436.16;2069228;84;20983;-81
2021/10/16 00:57:12;;;;;;;11.63;5.95;;;;;;;5.71;78.45;100438.59;2074823;84;20982;-82
2021/10/16 01:00:15;;;;;;;18.70;7.05;;;;;;;5.67;78.65;100439.82;2079934;84;21031;-79
2021/10/16 01:03:17;;;;;;;13.08;5.87;;;;;;;5.66;78.54;100438.62;2132799;82;21082;-81
2021/10/16 01:06:20;;;;;;;9.28;5.33;;;;;;;5.63;78.75;100439.70;2122745;82;21068;-81
2021/10/16 01:09:22;;;;;;;10.15;5.10;;;;;;;5.61;78.87;100450.37;2115707;82;21489;-81
2021/10/16 01:12:24;;;;;;;10.45;6.17;;;;;;;5.68;78.93;100444.11;2112687;82;21088;-78
2021/10/16 01:15:26;;;;;;;11.60;6.75;;;;;;;5.63;78.54;100442.34;2107773;82;21467;-81
2021/10/16 01:18:28;;;;;;;11.38;6.22;;;;;;;5.58;78.65;100441.91;2109376;82;21024;-80
2021/10/16 01:21:31;;;;;;;9.53;6.28;;;;;;;5.55;78.53;100440.84;2114284;82;20967;-81
2021/10/16 01:24:35;;;;;;;11.85;6.78;;;;;;;5.52;78.44;100437.98;2111080;82;21039;-79
2021/10/16 01:27:38;;;;;;;13.08;6.80;;;;;;;5.49;78.48;100445.27;2108283;82;21072;-80
2021/10/16 01:30:40;;;;;;;12.78;6.87;;;;;;;5.44;78.54;100444.84;2112724;82;21657;-80
2021/10/16 01:33:42;;;;;;;14.95;6.87;;;;;;;5.42;78.70;100448.90;2107870;82;21105;-79
2021/10/16 01:36:47;;;;;;;14.13;6.33;;;;;;;5.42;78.72;100444.95;2115011;82;20991;-82
2021/10/16 01:39:50;;;;;;;13.35;7.03;;;;;;;5.45;78.62;100441.23;2112170;82;21017;-79
2021/10/16 01:42:53;;;;;;;12.95;7.30;;;;;;;5.43;78.61;100437.41;2115144;82;21076;-81
2021/10/16 01:45:56;;;;;;;11.40;6.58;;;;;;;5.37;78.60;100437.42;2116912;82;21067;-80
2021/10/16 01:49:02;;;;;;;9.28;6.75;;;;;;;5.35;78.48;100432.79;2110965;82;21047;-79
2021/10/16 01:52:05;;;;;;;11.75;6.75;;;;;;;5.31;78.46;100441.88;2120463;82;21525;-79
2021/10/16 01:55:09;;;;;;;12.60;6.60;;;;;;;5.25;78.30;100442.38;2115397;82;21041;-79
2021/10/16 01:58:16;;;;;;;12.90;6.50;;;;;;;5.20;78.60;100443.71;2109809;82;21095;-81
2021/10/16 02:01:20;;;;;;;15.80;7.40;;;;;;;5.19;78.67;100442.05;2111297;82;21585;-82
2021/10/16 02:04:23;;;;;;;14.65;7.58;;;;;;;5.25;78.85;100446.81;2114176;82;21074;-80
2021/10/16 02:07:25;;;;;;;12.47;7.95;;;;;;;5.23;78.93;100442.15;2118982;82;21513;-82
2021/10/16 02:10:26;;;;;;;12.98;8.48;;;;;;;5.22;79.11;100443.95;2120520;82;21056;-80
2021/10/16 02:13:28;;;;;;;13.28;7.50;;;;;;;5.21;79.05;100440.11;2123856;82;21072;-80
2021/10/16 02:16:40;;;;;;;11.75;6.92;;;;;;;5.15;79.06;100444.08;2124103;82;21002;-82
2021/10/16 02:19:44;;;;;;;11.12;6.85;;;;;;;5.11;79.08;100445.30;2118433;82;21129;-81
2021/10/16 02:22:45;;;;;;;14.03;7.28;;;;;;;5.05;78.90;100449.73;2125343;82;21032;-81
2021/10/16 02:25:49;;;;;;;12.88;7.22;;;;;;;5.05;79.16;100447.11;2124903;82;21069;-81
2021/10/16 02:28:52;;;;;;;13.15;7.65;;;;;;;5.04;79.14;100448.05;2120227;82;21084;-80
2021/10/16 02:31:55;;;;;;;12.70;7.00;;;;;;;5.02;79.21;100451.30;2118212;82;20976;-82
2021/10/16 02:34:57;;;;;;;11.25;7.05;;;;;;;4.99;79.09;100455.50;2117400;82;21071;-82
2021/10/16 02:37:58;;;;;;;12.45;7.95;;;;;;;4.96;79.21;100459.69;2113899;82;21440;-83
2021/10/16 02:41:00;;;;;;;11.25;6.62;;;;;;;4.90;79.20;100463.16;2119655;82;21069;-79
2021/10/16 02:44:01;;;;;;;8.58;6.65;;;;;;;4.87;79.11;100467.34;2123850;82;21594;-82
2021/10/16 02:47:05;;;;;;;11.15;6.72;;;;;;;4.85;79.12;100468.42;2117945;82;21042;-82
2021/10/16 02:50:07;;;;;;;12.63;6.72;;;;;;;4.82;78.90;100468.67;2125624;82;21042;-78
2021/10/16 02:53:08;;;;;;;13.30;6.90;;;;;;;4.83;79.17;100476.41;2126637;82;20968;-79
2021/10/16 02:56:11;;;;;;;12.47;7.50;;;;;;;4.86;79.25;100474.86;2125221;82;21161;-82
2021/10/16 02:59:13;;;;;;;12.28;7.15;;;;;;;4.82;79.00;100474.75;2128095;82;21025;-80
2021/10/16 03:02:26;;;;;;;13.30;7.17;;;;;;;4.81;78.97;100474.37;2116786;82;21545;-81
2021/10/16 03:05:28;;;;;;;11.78;7.70;;;;;;;4.77;79.02;100484.80;2122914;82;21027;-79
2021/10/16 03:08:30;;;;;;;11.28;7.60;;;;;;;4.72;78.94;100487.77;2121754;82;21506;-80
2021/10/16 03:11:32;;;;;;;11.40;6.90;;;;;;;4.65;79.14;100488.39;2118909;82;21043;-83
2021/10/16 03:14:33;;;;;;;11.85;6.62;;;;;;;4.56;79.04;100497.83;2112849;82;21012;-81
2021/10/16 03:17:35;;;;;;;8.05;5.90;;;;;;;4.41;78.90;100491.11;2102613;82;21063;-80
2021/10/16 03:20:37;;;;;;;9.73;6.67;;;;;;;4.31;78.95;100501.50;2113224;82;21163;-81
2021/10/16 03:23:40;;;;;;;13.00;7.05;;;;;;;4.30;78.93;100506.86;2113106;82;21502;-79
2021/10/16 03:26:42;;;;;;;13.80;6.65;;;;;;;4.26;78.92;100505.78;2113023;82;20987;-79
2021/10/16 03:29:44;;;;;;;13.93;7.33;;;;;;;4.28;79.03;100512.25;2109692;82;21008;-81
2021/10/16 03:32:46;;;;;;;11.60;6.72;;;;;;;4.24;78.84;100513.42;2110501;82;21105;-79
2021/10/16 03:35:47;;;;;;;10.70;6.70;;;;;;;4.21;78.78;100520.22;2113981;82;22198;-79
2021/10/16 03:38:49;;;;;;;9.28;5.85;;;;;;;4.19;78.96;100520.80;2117279;82;21194;-77
2021/10/16 03:41:51;;;;;;;10.20;6.75;;;;;;;4.19;79.11;100521.63;2115942;82;20956;-84
2021/10/16 03:44:53;;;;;;;14.65;6.42;;;;;;;4.22;79.37;100523.19;2111443;82;21465;-81
2021/10/16 03:47:54;;;;;;;9.68;6.60;;;;;;;4.29;79.59;100520.48;2107988;82;21037;-79
2021/10/16 03:50:56;;;;;;;14.87;7.72;;;;;;;4.38;79.64;100519.77;2114329;82;21017;-77
2021/10/16 03:53:58;;;;;;;12.85;8.50;;;;;;;4.45;79.58;100524.93;2118107;82;21040;-81
2021/10/16 03:57:00;;;;;;;13.72;7.90;;;;;;;4.46;79.57;100530.53;2115103;82;21543;-83
2021/10/16 04:00:12;;;;;;;14.28;7.62;;;;;;;4.43;79.57;100530.77;2117244;82;21130;-80
2021/10/16 04:03:11;;;;;;;11.12;6.35;;;;;;;4.42;79.52;100529.56;2115638;82;21055;-81
2021/10/16 04:06:15;;;;;;;9.75;6.55;;;;;;;4.43;79.54;100522.89;2111316;82;21026;-78
2021/10/16 04:09:16;;;;;;;15.03;7.87;;;;;;;4.45;79.52;100533.30;2106634;82;21067;-83
2021/10/16 04:12:18;;;;;;;16.57;9.75;;;;;;;4.45;79.52;100534.12;2104485;83;21047;-82
2021/10/16 04:15:20;;;;;;;17.02;9.15;;;;;;;4.51;79.93;100533.30;2097859;83;20990;-79
2021/10/16 04:18:21;;;;;;;13.90;8.83;;;;;;;4.53;80.12;100534.83;2102069;83;21002;-80
2021/10/16 04:21:23;;;;;;;16.20;8.60;;;;;;;4.56;80.15;100537.70;2106472;83;21033;-80
2021/10/16 04:24:26;;;;;;;11.80;8.43;;;;;;;4.58;80.18;100536.63;2105235;83;21028;-80
2021/10/16 04:27:29;;;;;;;35.52;16.60;;;;;;;4.58;80.13;100542.37;2104846;83;21066;-79
2021/10/16 04:30:33;;;;;;;29.40;13.98;;;;;;;4.60;80.12;100545.73;2100047;83;21113;-79
2021/10/16 04:33:34;;;;;;;28.92;14.28;;;;;;;4.61;80.14;100560.05;2106597;83;21552;-79
2021/10/16 04:36:36;;;;;;;17.73;9.75;;;;;;;4.66;80.26;100560.54;2104558;83;21021;-78
2021/10/16 04:39:37;;;;;;;20.48;12.00;;;;;;;4.71;80.33;100562.34;2111847;83;20953;-79
2021/10/16 04:42:40;;;;;;;16.65;10.88;;;;;;;4.71;80.31;100565.45;2105584;83;21057;-80
2021/10/16 04:45:45;;;;;;;19.37;9.80;;;;;;;4.70;80.68;100568.56;2086035;83;21430;-79
2021/10/16 04:48:47;;;;;;;17.60;9.20;;;;;;;4.72;81.28;100561.38;2107674;83;21014;-83
2021/10/16 04:51:48;;;;;;;16.82;10.10;;;;;;;4.80;81.66;100575.26;2107773;83;21042;-77
2021/10/16 04:54:52;;;;;;;21.15;10.00;;;;;;;4.89;81.86;100574.53;2106846;83;21038;-80
2021/10/16 04:57:53;;;;;;;16.32;9.63;;;;;;;4.99;82.05;100572.05;2108290;83;21022;-79
2021/10/16 05:00:57;;;;;;;21.65;9.50;;;;;;;5.08;82.09;100567.38;2106861;83;21073;-79
2021/10/16 05:03:58;;;;;;;16.55;8.98;;;;;;;5.17;82.15;100571.06;2106018;83;20947;-79
2021/10/16 05:06:59;;;;;;;15.83;9.78;;;;;;;5.23;82.37;100583.73;2099080;83;21093;-81
2021/10/16 05:10:03;;;;;;;14.47;9.18;;;;;;;5.22;82.70;100574.18;2110569;82;22446;-77
2021/10/16 05:13:05;;;;;;;23.10;11.00;;;;;;;5.25;83.04;100576.56;2111120;82;21032;-80
2021/10/16 05:16:07;;;;;;;27.60;11.63;;;;;;;5.25;82.64;100573.94;2117201;82;21011;-79
2021/10/16 05:19:09;;;;;;;25.25;12.35;;;;;;;5.30;82.76;100577.53;2107144;82;21059;-79
2021/10/16 05:22:10;;;;;;;19.12;11.95;;;;;;;5.32;82.96;100572.50;2113208;82;21054;-78
2021/10/16 05:25:15;;;;;;;20.40;11.40;;;;;;;5.36;82.82;100573.09;2113182;82;20990;-79
2021/10/16 05:28:16;;;;;;;27.45;12.80;;;;;;;5.39;82.82;100580.25;2115352;82;21522;-78
2021/10/16 05:31:18;;;;;;;21.33;12.35;;;;;;;5.43;82.85;100576.89;2114161;82;21496;-79
2021/10/16 05:34:19;;;;;;;24.02;11.97;;;;;;;5.49;82.96;100583.45;2117927;81;21003;-80
2021/10/16 05:37:21;;;;;;;21.05;11.85;;;;;;;5.55;82.93;100582.99;2113516;82;21057;-76
2021/10/16 05:40:23;;;;;;;18.45;9.85;;;;;;;5.58;82.87;100591.95;2120583;82;21023;-81
2021/10/16 05:43:24;;;;;;;19.92;10.82;;;;;;;5.59;82.90;100584.41;2106812;82;21021;-81
2021/10/16 05:46:28;;;;;;;22.73;11.68;;;;;;;5.58;82.96;100591.47;2114929;82;20994;-78
2021/10/16 05:49:29;;;;;;;18.95;11.08;;;;;;;5.60;82.99;100593.97;2107736;82;21049;-80
2021/10/16 05:52:31;;;;;;;24.12;11.25;;;;;;;5.66;83.26;100596.59;2115068;82;21082;-79
2021/10/16 05:55:33;;;;;;;25.20;10.82;;;;;;;5.70;83.09;100605.93;2118494;82;21446;-78
2021/10/16 05:58:38;;;;;;;25.20;11.93;;;;;;;5.71;83.15;100601.00;2110696;82;21678;-79
2021/10/16 06:01:40;;;;;;;21.87;9.30;;;;;;;5.70;83.09;100615.14;2072054;84;21465;-78
2021/10/16 06:04:41;;;;;;;17.45;9.80;;;;;;;5.69;83.35;100617.40;2067344;84;20963;-78
2021/10/16 06:07:43;;;;;;;16.55;9.33;;;;;;;5.70;83.20;100621.23;2075931;84;21004;-80
2021/10/16 06:10:45;;;;;;;15.70;8.90;;;;;;;5.70;83.24;100623.87;2070884;84;21537;-78
2021/10/16 06:13:46;;;;;;;22.65;9.83;;;;;;;5.72;83.42;100621.13;2070635;84;21058;-80
2021/10/16 06:16:48;;;;;;;24.43;10.38;;;;;;;5.72;83.27;100634.30;2073245;84;21038;-79
2021/10/16 06:19:52;;;;;;;22.70;11.10;;;;;;;5.76;83.34;100637.86;2074014;84;21425;-82
2021/10/16 06:22:53;;;;;;;21.68;10.30;;;;;;;5.82;83.42;100643.95;2071898;84;20993;-82
2021/10/16 06:25:55;;;;;;;21.23;10.78;;;;;;;5.90;83.36;100642.51;2070769;84;20995;-82
2021/10/16 06:28:57;;;;;;;18.27;10.93;;;;;;;5.99;83.45;100653.64;2070971;84;21034;-79
2021/10/16 06:31:58;;;;;;;24.55;9.45;;;;;;;6.06;83.31;100644.30;2069714;84;21034;-80
2021/10/16 06:35:02;;;;;;;21.60;9.63;;;;;;;6.06;83.30;100656.98;2072230;84;21651;-78
2021/10/16 06:38:04;;;;;;;22.65;10.23;;;;;;;6.06;83.21;100665.37;2072840;84;21025;-80
2021/10/16 06:41:06;;;;;;;19.37;9.58;;;;;;;6.05;83.21;100667.17;2067787;84;20999;-78
2021/10/16 06:44:09;;;;;;;19.82;9.83;;;;;;;6.12;83.36;100669.30;2073645;84;21081;-81
2021/10/16 06:47:28;;;;;;;18.00;9.73;;;;;;;6.08;83.10;100670.01;2013587;87;21065;-82
2021/10/16 06:50:31;;;;;;;26.12;9.83;;;;;;;6.11;83.09;100672.42;2107697;83;21053;-83
2021/10/16 06:53:32;;;;;;;21.42;10.55;;;;;;;6.14;83.08;100681.39;2114391;82;21509;-81
2021/10/16 06:56:34;;;;;;;18.60;11.30;;;;;;;6.19;83.22;100685.78;2119992;83;21033;-81
2021/10/16 06:59:35;;;;;;;24.18;12.53;;;;;;;6.27;83.31;100686.00;2119429;83;21077;-79
2021/10/16 07:02:37;;;;;;;25.27;11.95;;;;;;;6.35;83.30;100691.14;2093559;83;21049;-81
2021/10/16 07:05:43;;;;;;;17.65;10.10;;;;;;;6.40;83.24;100693.76;2076357;84;21066;-79
2021/10/16 07:08:45;;;;;;;20.50;9.45;;;;;;;6.49;83.22;100690.84;2076572;84;21011;-78
2021/10/16 07:11:46;;;;;;;21.07;8.73;;;;;;;6.49;82.99;100690.36;2076515;84;21489;-79
2021/10/16 07:14:48;;;;;;;19.75;8.40;;;;;;;6.53;83.04;100694.89;2124781;82;21483;-81
2021/10/16 07:17:49;;;;;;;25.37;9.05;;;;;;;6.54;82.90;100693.11;2137121;82;21082;-79
2021/10/16 07:20:51;;;;;;;16.95;8.60;;;;;;;6.51;82.88;100700.30;2132181;82;21004;-78
2021/10/16 07:23:52;;;;;;;19.52;8.55;;;;;;;6.54;82.83;100708.45;2130414;82;21094;-81
2021/10/16 07:26:55;;;;;;;21.25;9.33;;;;;;;6.54;82.87;100711.57;2133983;82;21024;-79
2021/10/16 07:29:57;;;;;;;19.30;8.88;;;;;;;6.51;82.83;100707.38;2139158;82;21035;-81
2021/10/16 07:32:58;;;;;;;23.77;10.08;;;;;;;6.54;82.84;100712.41;2129734;82;21051;-80
2021/10/16 07:35:59;;;;;;;26.02;9.60;;;;;;;6.56;82.82;100717.53;2133287;82;21096;-80
2021/10/16 07:39:07;;;;;;;17.48;9.25;;;;;;;6.56;82.80;100722.80;2133150;82;20989;-81
2021/10/16 07:42:09;;;;;;;14.05;7.95;;;;;;;6.54;82.75;100724.75;2136074;82;21011;-76
2021/10/16 07:45:10;;;;;;;16.50;8.93;;;;;;;6.56;82.77;100721.48;2134465;82;21538;-77
2021/10/16 07:48:12;;;;;;;15.85;7.70;;;;;;;6.57;82.72;100723.18;2132619;82;21057;-77
2021/10/16 07:51:15;;;;;;;20.02;7.45;;;;;;;6.61;82.69;100725.91;2130002;82;20996;-77
2021/10/16 07:54:18;;;;;;;20.10;7.78;;;;;;;6.66;82.85;100727.20;2127729;82;21007;-81
2021/10/16 07:57:21;;;;;;;17.77;7.85;;;;;;;6.69;82.76;100730.91;2132661;82;21034;-81
2021/10/16 08:00:23;;;;;;;15.15;7.35;;;;;;;6.75;82.83;100744.06;2133060;82;21043;-78
2021/10/16 08:03:24;;;;;;;15.65;8.40;;;;;;;6.81;82.70;100743.55;2086726;84;20946;-77
2021/10/16 08:06:26;;;;;;;20.75;7.28;;;;;;;6.89;82.73;100742.92;2070490;84;21096;-79
2021/10/16 08:09:27;;;;;;;14.95;6.90;;;;;;;6.97;82.72;100744.44;2079246;83;21089;-80
2021/10/16 08:12:30;;;;;;;19.05;7.47;;;;;;;7.04;82.54;100744.75;2076053;84;21100;-78
2021/10/16 08:15:34;;;;;;;16.75;7.85;;;;;;;7.10;82.25;100750.38;2074826;84;21056;-78
2021/10/16 08:18:35;;;;;;;14.87;7.28;;;;;;;7.13;82.20;100754.07;2076262;83;21563;-79
2021/10/16 08:21:37;;;;;;;16.35;8.18;;;;;;;7.18;82.24;100764.25;2075987;84;21072;-77
2021/10/16 08:24:38;;;;;;;19.65;8.88;;;;;;;7.19;81.88;100765.42;2079989;84;22207;-78
2021/10/16 08:27:41;;;;;;;14.58;8.33;;;;;;;7.23;81.90;100761.20;2075102;84;21003;-78
2021/10/16 08:30:50;;;;;;;20.20;8.78;;;;;;;7.30;81.96;100768.48;2080096;84;21074;-80
2021/10/16 08:33:49;;;;;;;22.55;8.80;;;;;;;7.38;81.89;100758.12;2076849;84;21075;-80
2021/10/16 08:36:51;;;;;;;18.98;9.03;;;;;;;7.37;81.61;100768.80;2078844;84;21057;-77
2021/10/16 08:39:52;;;;;;;19.23;8.48;;;;;;;7.39;81.59;100759.78;2073561;84;21508;-78
2021/10/16 08:42:54;;;;;;;16.77;8.33;;;;;;;7.53;81.90;100766.53;2075057;84;21022;-78
2021/10/16 08:46:00;;;;;;;20.08;9.00;;;;;;;7.67;81.51;100763.20;2076439;84;20968;-80
2021/10/16 08:49:03;;;;;;;25.23;9.38;;;;;;;7.83;81.52;100770.16;2076427;84;21005;-80
2021/10/16 08:52:05;;;;;;;20.52;9.65;;;;;;;7.91;81.39;100770.30;2080533;84;21049;-82
2021/10/16 08:55:13;;;;;;;23.50;9.55;;;;;;;7.90;80.89;100771.77;2076035;84;21006;-79
2021/10/16 08:58:14;;;;;;;20.95;8.73;;;;;;;7.84;80.86;100775.28;2075334;84;21119;-78
2021/10/16 09:01:16;;;;;;;21.87;8.85;;;;;;;7.91;81.18;100768.97;2076150;83;21006;-79
2021/10/16 09:04:21;;;;;;;13.83;7.72;;;;;;;7.97;81.09;100783.45;2078083;84;21533;-79
2021/10/16 09:07:24;;;;;;;18.60;9.23;;;;;;;8.01;80.90;100777.78;2078415;84;21548;-82
2021/10/16 09:10:26;;;;;;;19.87;9.15;;;;;;;7.96;80.80;100781.30;2047187;84;21015;-79
2021/10/16 09:13:47;;;;;;;20.75;9.40;;;;;;;8.01;80.87;100789.67;2078998;84;21036;-79
2021/10/16 09:16:59;;;;;;;19.52;10.00;;;;;;;8.02;80.70;100788.70;2074591;84;21029;-78
2021/10/16 09:20:10;;;;;;;20.63;10.90;;;;;;;8.08;80.67;100793.93;2017772;85;23463;-79
2021/10/16 09:23:12;;;;;;;25.45;10.32;;;;;;;8.13;80.35;100794.86;2115354;82;21744;-79
2021/10/16 09:26:14;;;;;;;19.27;9.50;;;;;;;8.22;80.39;100796.69;2112417;82;21050;-79
2021/10/16 09:29:17;;;;;;;26.57;9.18;;;;;;;8.36;80.43;100796.30;2106530;82;20974;-82
2021/10/16 09:32:24;;;;;;;20.95;9.83;;;;;;;8.43;79.93;100797.97;2109875;81;21817;-79
2021/10/16 09:35:31;;;;;;;20.45;9.50;;;;;;;8.52;80.00;100794.01;2110484;82;21060;-81
2021/10/16 09:38:41;;;;;;;22.87;10.23;;;;;;;8.67;79.98;100790.96;2114375;82;21020;-79
2021/10/16 09:41:44;;;;;;;24.75;11.25;;;;;;;8.69;79.71;100795.14;2113196;82;21504;-81
2021/10/16 09:44:47;;;;;;;23.32;10.28;;;;;;;8.74;79.49;100806.64;2119519;82;20976;-80
2021/10/16 09:47:56;;;;;;;24.80;10.28;;;;;;;8.67;79.09;100793.14;2105526;82;21073;-78
2021/10/16 09:50:59;;;;;;;22.05;9.23;;;;;;;9.02;79.80;100790.91;2118883;82;21553;-80
2021/10/16 09:54:08;;;;;;;18.50;8.88;;;;;;;9.54;79.89;100800.16;2113807;82;21066;-79
2021/10/16 09:57:13;;;;;;;26.95;8.88;;;;;;;10.08;79.25;100803.06;2116159;82;21473;-81
2021/10/16 10:00:16;;;;;;;17.30;8.45;;;;;;;10.25;78.25;100802.27;2110679;82;20960;-81
2021/10/16 10:03:27;;;;;;;16.48;8.85;;;;;;;10.41;77.67;100808.76;2121047;82;21014;-80
2021/10/16 10:06:30;;;;;;;18.80;8.33;;;;;;;10.77;77.56;100803.00;2108339;81;21124;-78
2021/10/16 10:09:32;;;;;;;19.05;8.13;;;;;;;10.86;76.43;100798.10;2114577;82;21029;-79
2021/10/16 10:12:34;;;;;;;19.77;8.83;;;;;;;11.00;76.34;100798.06;2119543;82;21018;-81
2021/10/16 10:15:35;;;;;;;17.52;7.37;;;;;;;11.33;75.97;100792.52;2122709;82;21053;-83
2021/10/16 10:21:57;;;;;;;12.35;6.15;;;;;;;11.66;73.93;100797.56;2118381;83;21071;-77
2021/10/16 10:24:59;;;;;;;18.10;7.50;;;;;;;11.73;72.58;100791.11;2121871;82;21010;-77
2021/10/16 10:28:02;;;;;;;20.43;7.03;;;;;;;11.78;73.50;100772.03;2123474;82;21086;-76
2021/10/16 10:31:04;;;;;;;17.00;7.12;;;;;;;12.18;73.14;100792.67;2119813;82;21054;-79
2021/10/16 10:34:05;;;;;;;16.23;6.90;;;;;;;12.19;72.71;100794.83;2123970;82;21442;-78
2021/10/16 10:37:13;;;;;;;15.28;6.35;;;;;;;12.22;72.17;100796.70;2115989;82;21061;-78
2021/10/16 10:40:21;;;;;;;17.30;6.72;;;;;;;12.08;71.34;100788.83;2116802;82;21449;-76
2021/10/16 10:43:40;;;;;;;15.88;6.92;;;;;;;12.17;71.85;100792.34;2118427;82;21017;-78
2021/10/16 10:46:42;;;;;;;15.98;6.95;;;;;;;12.35;71.43;100789.56;2118180;82;22054;-79
2021/10/16 10:49:43;;;;;;;15.38;6.50;;;;;;;12.55;71.32;100790.12;2122499;82;21036;-79
2021/10/16 10:53:08;;;;;;;21.00;6.50;;;;;;;12.70;70.60;100783.68;2118607;82;20964;-78
2021/10/16 10:56:20;;;;;;;12.80;5.80;;;;;;;12.76;70.27;100783.02;2122177;82;21044;-78
2021/10/16 10:59:20;;;;;;;14.53;6.20;;;;;;;12.97;70.11;100771.86;2114030;82;21023;-78
2021/10/16 11:02:32;;;;;;;14.13;5.78;;;;;;;13.18;69.68;100770.04;2122153;82;21040;-79
2021/10/16 11:05:34;;;;;;;11.78;5.92;;;;;;;13.24;69.08;100760.03;2118392;82;22075;-80
2021/10/16 11:08:37;;;;;;;15.85;6.55;;;;;;;13.42;69.23;100764.69;2118688;82;21050;-78
2021/10/16 11:11:50;;;;;;;19.35;5.47;;;;;;;13.54;68.28;100763.00;2103449;82;21510;-77
2021/10/16 11:14:51;;;;;;;15.60;5.47;;;;;;;13.55;67.43;100763.34;2106019;83;21066;-79
2021/10/16 11:17:53;;;;;;;12.68;5.25;;;;;;;13.22;66.75;100752.70;2105483;83;21018;-78
2021/10/16 11:20:59;;;;;;;14.35;5.22;;;;;;;13.20;66.93;100755.52;2108077;83;21030;-81
2021/10/16 11:24:04;;;;;;;12.63;5.40;;;;;;;13.20;66.90;100759.52;2101015;83;21607;-80
2021/10/16 11:27:06;;;;;;;13.32;5.45;;;;;;;13.23;66.58;100755.69;2111697;83;21025;-78
2021/10/16 11:30:17;;;;;;;13.88;5.60;;;;;;;13.29;66.25;100748.88;2105280;83;21068;-78
2021/10/16 11:33:22;;;;;;;17.37;5.95;;;;;;;13.16;65.82;100742.72;2104708;83;21056;-77
2021/10/16 11:36:25;;;;;;;14.35;5.60;;;;;;;13.04;65.64;100747.56;2057195;85;20967;-78
2021/10/16 11:39:29;;;;;;;12.75;5.37;;;;;;;12.75;65.63;100748.91;2063236;85;21570;-82
2021/10/16 11:42:29;;;;;;;14.63;5.33;;;;;;;12.61;66.22;100736.72;2063845;85;21110;-78
2021/10/16 11:45:35;;;;;;;15.53;6.05;;;;;;;12.72;66.19;100740.39;2063627;85;21034;-80
2021/10/16 11:48:37;;;;;;;16.10;5.05;;;;;;;12.79;66.38;100729.42;2062624;85;21803;-80
2021/10/16 11:51:38;;;;;;;13.70;4.83;;;;;;;12.81;66.17;100724.77;2061574;85;20966;-82
2021/10/16 11:54:40;;;;;;;13.03;6.25;;;;;;;12.93;66.01;100723.42;2062856;85;21058;-80
2021/10/16 11:57:44;;;;;;;19.90;5.97;;;;;;;13.04;65.87;100723.59;2062406;85;20943;-77
2021/10/16 12:00:59;;;;;;;13.28;5.25;;;;;;;13.06;65.46;100718.91;2061978;85;21065;-80
2021/10/16 12:04:01;;;;;;;12.20;5.22;;;;;;;13.12;65.57;100720.06;2062829;85;21076;-79
2021/10/16 12:07:03;;;;;;;12.13;4.95;;;;;;;13.34;65.39;100712.72;2063606;85;21030;-79
2021/10/16 12:10:35;;;;;;;15.15;5.40;;;;;;;13.44;65.09;100713.38;2067932;84;21070;-82
2021/10/16 12:13:44;;;;;;;14.98;4.30;;;;;;;13.49;64.62;100712.02;2058274;85;21165;-80
2021/10/16 12:16:46;;;;;;;12.40;4.62;;;;;;;13.50;64.12;100715.03;2064428;85;21085;-81
2021/10/16 12:19:57;;;;;;;12.25;4.72;;;;;;;13.53;64.08;100718.18;2061727;85;21559;-80
2021/10/16 12:23:00;;;;;;;9.50;4.45;;;;;;;13.60;64.30;100714.31;2057946;85;21344;-82
2021/10/16 12:26:02;;;;;;;13.40;3.90;;;;;;;13.67;63.82;100711.30;2062281;85;20946;-81
2021/10/16 12:29:10;;;;;;;9.75;4.05;;;;;;;13.63;63.22;100706.00;2062992;85;21037;-80
2021/10/16 12:32:14;;;;;;;14.10;3.62;;;;;;;13.48;62.67;100699.70;2060125;85;21066;-81
2021/10/16 12:35:19;;;;;;;10.13;3.30;;;;;;;13.43;62.48;100701.06;2060893;85;21036;-80
2021/10/16 12:38:21;;;;;;;10.50;3.42;;;;;;;13.30;61.51;100698.59;2059960;85;21545;-80
2021/10/16 12:41:33;;;;;;;8.98;3.22;;;;;;;13.15;61.55;100700.59;2032468;85;21492;-81
2021/10/16 12:44:37;;;;;;;9.75;3.50;;;;;;;13.04;61.64;100700.12;2057579;85;21057;-80
2021/10/16 12:47:39;;;;;;;6.87;3.15;;;;;;;12.86;60.69;100697.11;2055824;85;21006;-79
2021/10/16 12:50:55;;;;;;;10.65;3.98;;;;;;;12.62;61.24;100702.47;2058470;85;20975;-80
2021/10/16 12:54:00;;;;;;;14.25;5.37;;;;;;;12.44;61.64;100704.75;2062430;85;21012;-82
2021/10/16 12:57:10;;;;;;;10.08;3.50;;;;;;;12.26;61.52;100697.42;2057310;85;20994;-81
2021/10/16 13:00:11;;;;;;;8.95;4.25;;;;;;;12.04;60.98;100702.85;2056008;85;21039;-82
2021/10/16 13:03:16;;;;;;;8.10;3.00;;;;;;;11.93;61.45;100695.17;2056489;85;21539;-83
2021/10/16 13:06:18;;;;;;;5.90;2.80;;;;;;;11.84;60.75;100690.30;2056801;85;21555;-79
2021/10/16 13:09:19;;;;;;;9.73;3.92;;;;;;;11.81;61.06;100690.62;2060636;85;21053;-81
2021/10/16 13:12:21;;;;;;;9.10;3.47;;;;;;;11.81;61.27;100695.94;2067318;84;20989;-81
2021/10/16 13:15:23;;;;;;;7.50;3.60;;;;;;;11.77;61.50;100690.11;2072761;84;21019;-83
2021/10/16 13:18:25;;;;;;;8.33;3.52;;;;;;;11.73;61.76;100689.25;2076221;84;20988;-82
2021/10/16 13:21:26;;;;;;;12.93;3.67;;;;;;;11.72;61.89;100696.41;2113809;82;21040;-82
2021/10/16 13:24:28;;;;;;;15.38;6.70;;;;;;;11.78;62.20;100688.28;2114995;82;21460;-81
2021/10/16 13:27:29;;;;;;;25.62;9.83;;;;;;;11.82;62.12;100688.28;2111337;82;21057;-81
2021/10/16 13:30:31;;;;;;;27.73;13.78;;;;;;;11.79;62.32;100692.09;2111758;82;21448;-78
2021/10/16 13:33:33;;;;;;;18.07;10.93;;;;;;;11.81;62.23;100697.27;2118948;82;21516;-80
2021/10/16 13:36:35;;;;;;;18.02;8.23;;;;;;;11.80;62.43;100694.28;2110566;82;21011;-80
2021/10/16 13:39:36;;;;;;;20.82;11.95;;;;;;;11.75;62.04;100699.24;2109249;82;21455;-79
2021/10/16 13:42:39;;;;;;;14.65;7.20;;;;;;;11.64;61.91;100696.37;2112661;82;21495;-80
2021/10/16 13:45:40;;;;;;;11.43;3.90;;;;;;;11.53;61.77;100697.47;2115335;82;21032;-80
2021/10/16 13:48:43;;;;;;;9.85;3.65;;;;;;;11.46;61.90;100696.46;2113880;82;20959;-80
2021/10/16 13:51:44;;;;;;;8.90;2.95;;;;;;;11.41;62.28;100701.41;2108148;82;21082;-79
2021/10/16 13:54:46;;;;;;;11.50;4.22;;;;;;;11.34;62.14;100697.70;2117561;82;21079;-77
2021/10/16 13:57:48;;;;;;;10.53;5.00;;;;;;;11.27;62.27;100700.66;2118631;82;20984;-76
2021/10/16 14:00:50;;;;;;;15.80;5.92;;;;;;;11.20;62.46;100706.58;2108197;82;21122;-77
2021/10/16 14:03:51;;;;;;;20.17;7.75;;;;;;;11.02;63.44;100690.38;2114704;82;21017;-81
2021/10/16 14:06:53;;;;;;;20.00;8.88;;;;;;;10.97;63.22;100675.73;2121776;81;21029;-81
2021/10/16 14:09:54;;;;;;;21.62;8.15;;;;;;;10.97;63.22;100675.73;2117911;82;20998;-82
2021/10/16 14:12:56;;;;;;;28.12;12.33;;;;;;;11.09;63.48;100702.03;2117868;82;21048;-82